sensor_id;sensor_type;location;lat;lon;timestamp;temperature;humidity
46720;DHT22;32452;51.382;-0.002;2023-06-14T00:02:02;17.60;42.70
46720;DHT22;32452;51.382;-0.002;2023-06-14T00:04:48;17.50;42.80
46720;DHT22;32452;51.382;-0.002;2023-06-14T00:07:38;17.50;42.90
46720;DHT22;32452;51.382;-0.002;2023-06-14T00:10:27;17.50;43.20
46720;DHT22;32452;51.382;-0.002;2023-06-14T00:13:16;17.50;43.40
46720;DHT22;32452;51.382;-0.002;2023-06-14T00:16:01;17.50;43.70
46720;DHT22;32452;51.382;-0.002;2023-06-14T00:18:47;17.40;43.90
46720;DHT22;32452;51.382;-0.002;2023-06-14T00:21:33;17.30;44.00
46720;DHT22;32452;51.382;-0.002;2023-06-14T00:24:19;17.30;44.30
46720;DHT22;32452;51.382;-0.002;2023-06-14T00:27:05;17.30;44.90
46720;DHT22;32452;51.382;-0.002;2023-06-14T00:29:51;17.20;45.30
46720;DHT22;32452;51.382;-0.002;2023-06-14T00:32:36;17.10;45.60
46720;DHT22;32452;51.382;-0.002;2023-06-14T00:35:22;17.10;45.90
46720;DHT22;32452;51.382;-0.002;2023-06-14T00:38:08;17.00;46.10
46720;DHT22;32452;51.382;-0.002;2023-06-14T00:40:54;17.00;46.50
46720;DHT22;32452;51.382;-0.002;2023-06-14T00:43:39;16.90;46.50
46720;DHT22;32452;51.382;-0.002;2023-06-14T00:46:25;16.90;46.20
46720;DHT22;32452;51.382;-0.002;2023-06-14T00:49:12;16.80;46.00
46720;DHT22;32452;51.382;-0.002;2023-06-14T00:51:59;16.80;45.80
46720;DHT22;32452;51.382;-0.002;2023-06-14T00:54:45;16.80;45.80
46720;DHT22;32452;51.382;-0.002;2023-06-14T00:57:31;16.70;45.70
46720;DHT22;32452;51.382;-0.002;2023-06-14T01:00:17;16.70;45.80
46720;DHT22;32452;51.382;-0.002;2023-06-14T01:03:02;16.70;45.90
46720;DHT22;32452;51.382;-0.002;2023-06-14T01:05:56;16.60;46.10
46720;DHT22;32452;51.382;-0.002;2023-06-14T01:08:51;16.60;46.50
46720;DHT22;32452;51.382;-0.002;2023-06-14T01:11:54;16.50;46.80
46720;DHT22;32452;51.382;-0.002;2023-06-14T01:14:44;16.50;47.20
46720;DHT22;32452;51.382;-0.002;2023-06-14T01:17:32;16.40;47.60
46720;DHT22;32452;51.382;-0.002;2023-06-14T01:20:20;16.30;48.20
46720;DHT22;32452;51.382;-0.002;2023-06-14T01:23:06;16.30;48.80
46720;DHT22;32452;51.382;-0.002;2023-06-14T01:25:52;16.20;49.20
46720;DHT22;32452;51.382;-0.002;2023-06-14T01:28:40;16.20;49.80
46720;DHT22;32452;51.382;-0.002;2023-06-14T01:31:26;16.10;50.40
46720;DHT22;32452;51.382;-0.002;2023-06-14T01:34:12;16.00;50.90
46720;DHT22;32452;51.382;-0.002;2023-06-14T01:37:00;16.00;51.60
46720;DHT22;32452;51.382;-0.002;2023-06-14T01:39:47;16.00;52.50
46720;DHT22;32452;51.382;-0.002;2023-06-14T01:42:37;15.90;53.40
46720;DHT22;32452;51.382;-0.002;2023-06-14T01:45:23;15.90;54.30
46720;DHT22;32452;51.382;-0.002;2023-06-14T01:48:09;15.90;54.90
46720;DHT22;32452;51.382;-0.002;2023-06-14T01:50:55;15.80;55.50
46720;DHT22;32452;51.382;-0.002;2023-06-14T01:53:40;15.80;56.20
46720;DHT22;32452;51.382;-0.002;2023-06-14T01:56:26;15.70;56.80
46720;DHT22;32452;51.382;-0.002;2023-06-14T01:59:12;15.70;57.30
46720;DHT22;32452;51.382;-0.002;2023-06-14T02:01:57;15.60;57.80
46720;DHT22;32452;51.382;-0.002;2023-06-14T02:04:43;15.60;58.40
46720;DHT22;32452;51.382;-0.002;2023-06-14T02:07:28;15.60;58.90
46720;DHT22;32452;51.382;-0.002;2023-06-14T02:10:14;15.50;59.40
46720;DHT22;32452;51.382;-0.002;2023-06-14T02:13:00;15.50;59.90
46720;DHT22;32452;51.382;-0.002;2023-06-14T02:15:46;15.50;60.50
46720;DHT22;32452;51.382;-0.002;2023-06-14T02:18:33;15.40;61.00
46720;DHT22;32452;51.382;-0.002;2023-06-14T02:21:19;15.40;61.60
46720;DHT22;32452;51.382;-0.002;2023-06-14T02:24:05;15.40;62.10
46720;DHT22;32452;51.382;-0.002;2023-06-14T02:26:51;15.30;62.70
46720;DHT22;32452;51.382;-0.002;2023-06-14T02:29:37;15.30;63.10
46720;DHT22;32452;51.382;-0.002;2023-06-14T02:32:22;15.30;63.60
46720;DHT22;32452;51.382;-0.002;2023-06-14T02:35:08;15.30;64.00
46720;DHT22;32452;51.382;-0.002;2023-06-14T02:37:54;15.20;64.40
46720;DHT22;32452;51.382;-0.002;2023-06-14T02:40:40;15.20;64.70
46720;DHT22;32452;51.382;-0.002;2023-06-14T02:43:29;15.20;65.20
46720;DHT22;32452;51.382;-0.002;2023-06-14T02:46:14;15.10;65.60
46720;DHT22;32452;51.382;-0.002;2023-06-14T02:49:00;15.10;65.90
46720;DHT22;32452;51.382;-0.002;2023-06-14T02:51:46;15.10;66.30
46720;DHT22;32452;51.382;-0.002;2023-06-14T02:54:31;15.10;66.60
46720;DHT22;32452;51.382;-0.002;2023-06-14T02:57:16;15.10;66.90
46720;DHT22;32452;51.382;-0.002;2023-06-14T03:00:02;15.00;67.20
46720;DHT22;32452;51.382;-0.002;2023-06-14T03:02:48;15.00;67.40
46720;DHT22;32452;51.382;-0.002;2023-06-14T03:05:33;15.00;67.70
46720;DHT22;32452;51.382;-0.002;2023-06-14T03:08:19;15.00;68.00
46720;DHT22;32452;51.382;-0.002;2023-06-14T03:11:06;14.90;68.10
46720;DHT22;32452;51.382;-0.002;2023-06-14T03:13:52;14.90;68.40
46720;DHT22;32452;51.382;-0.002;2023-06-14T03:16:37;14.90;68.60
46720;DHT22;32452;51.382;-0.002;2023-06-14T03:19:23;14.90;68.80
46720;DHT22;32452;51.382;-0.002;2023-06-14T03:22:09;14.80;69.00
46720;DHT22;32452;51.382;-0.002;2023-06-14T03:24:57;14.80;69.20
46720;DHT22;32452;51.382;-0.002;2023-06-14T03:27:42;14.70;69.40
46720;DHT22;32452;51.382;-0.002;2023-06-14T03:30:29;14.70;69.60
46720;DHT22;32452;51.382;-0.002;2023-06-14T03:33:14;14.70;69.70
46720;DHT22;32452;51.382;-0.002;2023-06-14T03:36:02;14.70;69.90
46720;DHT22;32452;51.382;-0.002;2023-06-14T03:38:47;14.70;70.00
46720;DHT22;32452;51.382;-0.002;2023-06-14T03:41:33;14.70;70.20
46720;DHT22;32452;51.382;-0.002;2023-06-14T03:44:19;14.60;70.20
46720;DHT22;32452;51.382;-0.002;2023-06-14T03:47:05;14.60;70.30
46720;DHT22;32452;51.382;-0.002;2023-06-14T03:49:50;14.60;70.60
46720;DHT22;32452;51.382;-0.002;2023-06-14T03:52:36;14.60;70.70
46720;DHT22;32452;51.382;-0.002;2023-06-14T03:55:22;14.60;70.90
46720;DHT22;32452;51.382;-0.002;2023-06-14T03:58:30;14.60;71.10
46720;DHT22;32452;51.382;-0.002;2023-06-14T04:01:15;14.50;71.10
46720;DHT22;32452;51.382;-0.002;2023-06-14T04:04:01;14.50;71.20
46720;DHT22;32452;51.382;-0.002;2023-06-14T04:06:49;14.50;71.50
46720;DHT22;32452;51.382;-0.002;2023-06-14T04:09:35;14.50;71.70
46720;DHT22;32452;51.382;-0.002;2023-06-14T04:12:21;14.60;71.80
46720;DHT22;32452;51.382;-0.002;2023-06-14T04:15:07;14.50;71.90
46720;DHT22;32452;51.382;-0.002;2023-06-14T04:18:06;14.50;72.10
46720;DHT22;32452;51.382;-0.002;2023-06-14T04:20:51;14.50;72.20
46720;DHT22;32452;51.382;-0.002;2023-06-14T04:23:38;14.50;72.40
46720;DHT22;32452;51.382;-0.002;2023-06-14T04:26:24;14.50;72.60
46720;DHT22;32452;51.382;-0.002;2023-06-14T04:29:15;14.50;72.70
46720;DHT22;32452;51.382;-0.002;2023-06-14T04:32:01;14.50;72.80
46720;DHT22;32452;51.382;-0.002;2023-06-14T04:34:47;14.50;72.90
46720;DHT22;32452;51.382;-0.002;2023-06-14T04:37:32;14.60;73.20
46720;DHT22;32452;51.382;-0.002;2023-06-14T04:40:19;14.60;73.40
46720;DHT22;32452;51.382;-0.002;2023-06-14T04:43:04;14.60;73.50
46720;DHT22;32452;51.382;-0.002;2023-06-14T04:45:50;14.60;73.70
46720;DHT22;32452;51.382;-0.002;2023-06-14T04:48:39;14.70;73.90
46720;DHT22;32452;51.382;-0.002;2023-06-14T04:51:26;14.70;74.10
46720;DHT22;32452;51.382;-0.002;2023-06-14T04:54:14;14.70;74.20
46720;DHT22;32452;51.382;-0.002;2023-06-14T04:57:00;14.70;74.30
46720;DHT22;32452;51.382;-0.002;2023-06-14T04:59:45;14.80;74.50
46720;DHT22;32452;51.382;-0.002;2023-06-14T05:02:31;15.00;74.60
46720;DHT22;32452;51.382;-0.002;2023-06-14T05:05:17;15.20;74.30
46720;DHT22;32452;51.382;-0.002;2023-06-14T05:08:03;15.30;74.10
46720;DHT22;32452;51.382;-0.002;2023-06-14T05:10:48;15.30;74.20
46720;DHT22;32452;51.382;-0.002;2023-06-14T05:13:33;15.30;74.30
46720;DHT22;32452;51.382;-0.002;2023-06-14T05:16:20;15.40;74.50
46720;DHT22;32452;51.382;-0.002;2023-06-14T05:19:09;15.40;74.60
46720;DHT22;32452;51.382;-0.002;2023-06-14T05:21:55;15.40;74.80
46720;DHT22;32452;51.382;-0.002;2023-06-14T05:24:41;15.50;75.00
46720;DHT22;32452;51.382;-0.002;2023-06-14T05:27:27;15.50;75.00
46720;DHT22;32452;51.382;-0.002;2023-06-14T05:30:14;15.50;75.00
46720;DHT22;32452;51.382;-0.002;2023-06-14T05:33:00;15.60;75.20
46720;DHT22;32452;51.382;-0.002;2023-06-14T05:35:45;15.60;75.40
46720;DHT22;32452;51.382;-0.002;2023-06-14T05:38:32;15.60;75.60
46720;DHT22;32452;51.382;-0.002;2023-06-14T05:41:17;15.70;75.80
46720;DHT22;32452;51.382;-0.002;2023-06-14T05:44:03;15.70;75.90
46720;DHT22;32452;51.382;-0.002;2023-06-14T05:46:48;15.70;76.10
46720;DHT22;32452;51.382;-0.002;2023-06-14T05:49:34;15.80;76.20
46720;DHT22;32452;51.382;-0.002;2023-06-14T05:52:20;15.90;76.40
46720;DHT22;32452;51.382;-0.002;2023-06-14T05:55:06;16.00;76.50
46720;DHT22;32452;51.382;-0.002;2023-06-14T05:57:52;16.00;76.50
46720;DHT22;32452;51.382;-0.002;2023-06-14T06:00:37;16.10;76.70
46720;DHT22;32452;51.382;-0.002;2023-06-14T06:03:23;16.10;76.70
46720;DHT22;32452;51.382;-0.002;2023-06-14T06:06:08;16.20;76.90
46720;DHT22;32452;51.382;-0.002;2023-06-14T06:08:54;16.30;76.90
46720;DHT22;32452;51.382;-0.002;2023-06-14T06:11:40;16.30;76.90
46720;DHT22;32452;51.382;-0.002;2023-06-14T06:14:37;16.40;77.00
46720;DHT22;32452;51.382;-0.002;2023-06-14T06:17:22;16.50;77.00
46720;DHT22;32452;51.382;-0.002;2023-06-14T06:20:08;16.60;77.10
46720;DHT22;32452;51.382;-0.002;2023-06-14T06:22:55;16.70;77.20
46720;DHT22;32452;51.382;-0.002;2023-06-14T06:25:40;16.80;77.20
46720;DHT22;32452;51.382;-0.002;2023-06-14T06:28:26;17.10;77.10
46720;DHT22;32452;51.382;-0.002;2023-06-14T06:31:12;17.40;76.60
46720;DHT22;32452;51.382;-0.002;2023-06-14T06:33:58;17.80;75.90
46720;DHT22;32452;51.382;-0.002;2023-06-14T06:36:43;18.30;75.70
46720;DHT22;32452;51.382;-0.002;2023-06-14T06:39:29;18.70;73.80
46720;DHT22;32452;51.382;-0.002;2023-06-14T06:42:15;19.00;73.00
46720;DHT22;32452;51.382;-0.002;2023-06-14T06:45:01;19.50;72.40
46720;DHT22;32452;51.382;-0.002;2023-06-14T06:47:46;20.00;71.20
46720;DHT22;32452;51.382;-0.002;2023-06-14T06:50:32;20.70;69.60
46720;DHT22;32452;51.382;-0.002;2023-06-14T06:53:18;21.60;67.20
46720;DHT22;32452;51.382;-0.002;2023-06-14T06:56:20;22.30;65.00
46720;DHT22;32452;51.382;-0.002;2023-06-14T06:59:07;23.00;62.90
46720;DHT22;32452;51.382;-0.002;2023-06-14T07:01:52;23.70;61.10
46720;DHT22;32452;51.382;-0.002;2023-06-14T07:04:39;24.20;59.30
46720;DHT22;32452;51.382;-0.002;2023-06-14T07:07:25;24.60;58.20
46720;DHT22;32452;51.382;-0.002;2023-06-14T07:10:11;25.00;57.20
46720;DHT22;32452;51.382;-0.002;2023-06-14T07:12:57;25.40;56.40
46720;DHT22;32452;51.382;-0.002;2023-06-14T07:15:42;25.80;55.40
46720;DHT22;32452;51.382;-0.002;2023-06-14T07:18:28;26.00;54.20
46720;DHT22;32452;51.382;-0.002;2023-06-14T07:21:14;26.10;53.70
46720;DHT22;32452;51.382;-0.002;2023-06-14T07:23:59;26.40;53.20
46720;DHT22;32452;51.382;-0.002;2023-06-14T07:26:46;26.60;52.70
46720;DHT22;32452;51.382;-0.002;2023-06-14T07:29:31;26.60;52.10
46720;DHT22;32452;51.382;-0.002;2023-06-14T07:32:17;26.60;51.80
46720;DHT22;32452;51.382;-0.002;2023-06-14T07:35:03;26.70;51.30
46720;DHT22;32452;51.382;-0.002;2023-06-14T07:37:48;26.70;50.90
46720;DHT22;32452;51.382;-0.002;2023-06-14T07:40:34;26.70;51.00
46720;DHT22;32452;51.382;-0.002;2023-06-14T07:43:20;26.90;50.80
46720;DHT22;32452;51.382;-0.002;2023-06-14T07:46:07;27.00;50.30
46720;DHT22;32452;51.382;-0.002;2023-06-14T07:48:54;27.10;50.10
46720;DHT22;32452;51.382;-0.002;2023-06-14T07:51:41;27.20;49.70
46720;DHT22;32452;51.382;-0.002;2023-06-14T07:54:28;27.10;49.50
46720;DHT22;32452;51.382;-0.002;2023-06-14T07:57:15;27.20;49.70
46720;DHT22;32452;51.382;-0.002;2023-06-14T08:00:01;27.50;49.40
46720;DHT22;32452;51.382;-0.002;2023-06-14T08:02:46;27.80;48.80
46720;DHT22;32452;51.382;-0.002;2023-06-14T08:05:32;28.00;48.30
46720;DHT22;32452;51.382;-0.002;2023-06-14T08:08:18;28.30;48.10
46720;DHT22;32452;51.382;-0.002;2023-06-14T08:11:03;28.50;47.80
46720;DHT22;32452;51.382;-0.002;2023-06-14T08:13:49;28.60;47.90
46720;DHT22;32452;51.382;-0.002;2023-06-14T08:16:35;28.90;47.50
46720;DHT22;32452;51.382;-0.002;2023-06-14T08:19:20;28.80;47.00
46720;DHT22;32452;51.382;-0.002;2023-06-14T08:22:06;28.80;46.80
46720;DHT22;32452;51.382;-0.002;2023-06-14T08:24:52;29.00;46.40
46720;DHT22;32452;51.382;-0.002;2023-06-14T08:27:39;29.10;45.90
46720;DHT22;32452;51.382;-0.002;2023-06-14T08:30:25;29.00;45.70
46720;DHT22;32452;51.382;-0.002;2023-06-14T08:33:10;28.90;45.50
46720;DHT22;32452;51.382;-0.002;2023-06-14T08:36:01;28.80;45.50
46720;DHT22;32452;51.382;-0.002;2023-06-14T08:38:46;28.80;45.70
46720;DHT22;32452;51.382;-0.002;2023-06-14T08:41:33;28.80;45.80
46720;DHT22;32452;51.382;-0.002;2023-06-14T08:44:19;28.90;45.80
46720;DHT22;32452;51.382;-0.002;2023-06-14T08:47:06;29.10;45.70
46720;DHT22;32452;51.382;-0.002;2023-06-14T08:49:53;29.30;45.30
46720;DHT22;32452;51.382;-0.002;2023-06-14T08:52:45;29.60;44.90
46720;DHT22;32452;51.382;-0.002;2023-06-14T08:55:36;29.80;45.10
46720;DHT22;32452;51.382;-0.002;2023-06-14T08:58:31;29.80;44.10
46720;DHT22;32452;51.382;-0.002;2023-06-14T09:01:20;29.70;44.10
46720;DHT22;32452;51.382;-0.002;2023-06-14T09:04:07;29.80;44.10
46720;DHT22;32452;51.382;-0.002;2023-06-14T09:06:52;29.90;43.60
46720;DHT22;32452;51.382;-0.002;2023-06-14T09:09:41;30.10;43.10
46720;DHT22;32452;51.382;-0.002;2023-06-14T09:12:47;30.40;42.80
46720;DHT22;32452;51.382;-0.002;2023-06-14T09:15:34;30.80;42.80
46720;DHT22;32452;51.382;-0.002;2023-06-14T09:18:19;30.90;42.10
46720;DHT22;32452;51.382;-0.002;2023-06-14T09:21:06;31.10;41.90
46720;DHT22;32452;51.382;-0.002;2023-06-14T09:23:52;31.30;41.30
46720;DHT22;32452;51.382;-0.002;2023-06-14T09:26:40;31.40;40.60
46720;DHT22;32452;51.382;-0.002;2023-06-14T09:29:26;31.20;40.50
46720;DHT22;32452;51.382;-0.002;2023-06-14T09:32:13;31.30;40.80
46720;DHT22;32452;51.382;-0.002;2023-06-14T09:35:00;31.20;40.70
46720;DHT22;32452;51.382;-0.002;2023-06-14T09:37:47;31.40;40.10
46720;DHT22;32452;51.382;-0.002;2023-06-14T09:40:36;31.50;39.60
46720;DHT22;32452;51.382;-0.002;2023-06-14T09:43:23;31.70;39.90
46720;DHT22;32452;51.382;-0.002;2023-06-14T09:46:09;31.90;39.30
46720;DHT22;32452;51.382;-0.002;2023-06-14T09:48:59;32.10;38.90
46720;DHT22;32452;51.382;-0.002;2023-06-14T09:51:45;32.30;38.60
46720;DHT22;32452;51.382;-0.002;2023-06-14T09:54:36;32.50;38.40
46720;DHT22;32452;51.382;-0.002;2023-06-14T09:57:25;32.70;38.10
46720;DHT22;32452;51.382;-0.002;2023-06-14T10:00:13;32.80;38.10
46720;DHT22;32452;51.382;-0.002;2023-06-14T10:03:11;33.00;38.20
46720;DHT22;32452;51.382;-0.002;2023-06-14T10:06:02;33.10;38.00
46720;DHT22;32452;51.382;-0.002;2023-06-14T10:08:52;33.40;37.70
46720;DHT22;32452;51.382;-0.002;2023-06-14T10:11:40;33.60;37.30
46720;DHT22;32452;51.382;-0.002;2023-06-14T10:14:29;33.70;37.00
46720;DHT22;32452;51.382;-0.002;2023-06-14T10:23:13;33.80;36.50
46720;DHT22;32452;51.382;-0.002;2023-06-14T10:25:59;33.90;36.20
46720;DHT22;32452;51.382;-0.002;2023-06-14T10:31:49;33.80;35.20
46720;DHT22;32452;51.382;-0.002;2023-06-14T10:34:38;33.40;35.20
46720;DHT22;32452;51.382;-0.002;2023-06-14T10:37:24;33.10;35.80
46720;DHT22;32452;51.382;-0.002;2023-06-14T10:40:30;32.90;36.00
46720;DHT22;32452;51.382;-0.002;2023-06-14T10:43:23;32.90;36.40
46720;DHT22;32452;51.382;-0.002;2023-06-14T10:46:20;32.80;36.00
46720;DHT22;32452;51.382;-0.002;2023-06-14T10:49:08;32.50;36.10
46720;DHT22;32452;51.382;-0.002;2023-06-14T10:51:57;32.40;36.60
46720;DHT22;32452;51.382;-0.002;2023-06-14T10:57:56;32.00;35.80
46720;DHT22;32452;51.382;-0.002;2023-06-14T11:00:45;31.90;36.50
46720;DHT22;32452;51.382;-0.002;2023-06-14T11:03:51;32.10;36.10
46720;DHT22;32452;51.382;-0.002;2023-06-14T11:06:48;32.10;35.90
46720;DHT22;32452;51.382;-0.002;2023-06-14T11:12:59;32.10;36.50
46720;DHT22;32452;51.382;-0.002;2023-06-14T11:15:47;32.10;36.50
46720;DHT22;32452;51.382;-0.002;2023-06-14T11:18:36;32.10;36.20
46720;DHT22;32452;51.382;-0.002;2023-06-14T11:21:23;32.20;36.80
46720;DHT22;32452;51.382;-0.002;2023-06-14T11:24:10;32.30;37.30
46720;DHT22;32452;51.382;-0.002;2023-06-14T11:26:57;32.40;37.20
46720;DHT22;32452;51.382;-0.002;2023-06-14T11:29:49;32.40;36.40
46720;DHT22;32452;51.382;-0.002;2023-06-14T11:32:36;32.10;36.30
46720;DHT22;32452;51.382;-0.002;2023-06-14T11:35:22;31.90;37.80
46720;DHT22;32452;51.382;-0.002;2023-06-14T11:38:10;31.80;37.60
46720;DHT22;32452;51.382;-0.002;2023-06-14T11:40:59;31.80;37.30
46720;DHT22;32452;51.382;-0.002;2023-06-14T11:43:45;31.60;36.80
46720;DHT22;32452;51.382;-0.002;2023-06-14T11:46:31;31.40;37.60
46720;DHT22;32452;51.382;-0.002;2023-06-14T11:49:17;31.30;37.50
46720;DHT22;32452;51.382;-0.002;2023-06-14T11:52:03;31.30;37.40
46720;DHT22;32452;51.382;-0.002;2023-06-14T11:54:49;31.20;37.20
46720;DHT22;32452;51.382;-0.002;2023-06-14T11:57:35;31.00;37.10
46720;DHT22;32452;51.382;-0.002;2023-06-14T12:00:27;30.80;37.30
46720;DHT22;32452;51.382;-0.002;2023-06-14T12:03:13;30.60;37.90
46720;DHT22;32452;51.382;-0.002;2023-06-14T12:06:04;30.50;39.20
46720;DHT22;32452;51.382;-0.002;2023-06-14T12:08:50;30.40;38.30
46720;DHT22;32452;51.382;-0.002;2023-06-14T12:11:36;30.20;38.70
46720;DHT22;32452;51.382;-0.002;2023-06-14T12:14:28;30.10;38.70
46720;DHT22;32452;51.382;-0.002;2023-06-14T12:17:16;30.00;39.60
46720;DHT22;32452;51.382;-0.002;2023-06-14T12:20:08;30.00;39.70
46720;DHT22;32452;51.382;-0.002;2023-06-14T12:23:00;29.90;39.60
46720;DHT22;32452;51.382;-0.002;2023-06-14T12:25:49;29.90;39.80
46720;DHT22;32452;51.382;-0.002;2023-06-14T12:28:35;29.90;39.90
46720;DHT22;32452;51.382;-0.002;2023-06-14T12:31:21;29.80;40.50
46720;DHT22;32452;51.382;-0.002;2023-06-14T12:34:07;29.70;41.10
46720;DHT22;32452;51.382;-0.002;2023-06-14T12:36:53;29.60;40.40
46720;DHT22;32452;51.382;-0.002;2023-06-14T12:39:40;29.40;40.10
46720;DHT22;32452;51.382;-0.002;2023-06-14T12:42:27;29.40;40.10
46720;DHT22;32452;51.382;-0.002;2023-06-14T12:45:13;29.40;40.40
46720;DHT22;32452;51.382;-0.002;2023-06-14T12:47:59;29.40;40.20
46720;DHT22;32452;51.382;-0.002;2023-06-14T12:50:46;29.40;40.00
46720;DHT22;32452;51.382;-0.002;2023-06-14T12:53:38;29.40;40.20
46720;DHT22;32452;51.382;-0.002;2023-06-14T12:56:23;29.40;39.40
46720;DHT22;32452;51.382;-0.002;2023-06-14T12:59:09;29.50;39.30
46720;DHT22;32452;51.382;-0.002;2023-06-14T13:01:55;29.50;38.60
46720;DHT22;32452;51.382;-0.002;2023-06-14T13:04:41;29.60;38.50
46720;DHT22;32452;51.382;-0.002;2023-06-14T13:07:26;29.60;38.30
46720;DHT22;32452;51.382;-0.002;2023-06-14T13:10:12;29.60;38.50
46720;DHT22;32452;51.382;-0.002;2023-06-14T13:12:58;29.50;38.10
46720;DHT22;32452;51.382;-0.002;2023-06-14T13:15:45;29.50;38.00
46720;DHT22;32452;51.382;-0.002;2023-06-14T13:18:31;29.50;38.00
46720;DHT22;32452;51.382;-0.002;2023-06-14T13:21:16;29.50;37.70
46720;DHT22;32452;51.382;-0.002;2023-06-14T13:24:02;29.40;37.80
46720;DHT22;32452;51.382;-0.002;2023-06-14T13:26:48;29.40;37.90
46720;DHT22;32452;51.382;-0.002;2023-06-14T13:29:34;29.40;38.10
46720;DHT22;32452;51.382;-0.002;2023-06-14T13:32:22;29.30;37.60
46720;DHT22;32452;51.382;-0.002;2023-06-14T13:35:08;29.30;37.40
46720;DHT22;32452;51.382;-0.002;2023-06-14T13:37:53;29.40;37.60
46720;DHT22;32452;51.382;-0.002;2023-06-14T13:40:39;29.40;36.80
46720;DHT22;32452;51.382;-0.002;2023-06-14T13:43:24;29.40;36.70
46720;DHT22;32452;51.382;-0.002;2023-06-14T13:46:10;29.40;36.50
46720;DHT22;32452;51.382;-0.002;2023-06-14T13:48:55;29.40;36.70
46720;DHT22;32452;51.382;-0.002;2023-06-14T13:51:41;29.40;36.50
46720;DHT22;32452;51.382;-0.002;2023-06-14T13:54:27;29.50;36.20
46720;DHT22;32452;51.382;-0.002;2023-06-14T13:57:13;29.60;36.00
46720;DHT22;32452;51.382;-0.002;2023-06-14T13:59:58;29.60;35.90
46720;DHT22;32452;51.382;-0.002;2023-06-14T14:02:47;29.70;35.50
46720;DHT22;32452;51.382;-0.002;2023-06-14T14:05:35;29.60;35.20
46720;DHT22;32452;51.382;-0.002;2023-06-14T14:08:21;29.60;35.10
46720;DHT22;32452;51.382;-0.002;2023-06-14T14:11:07;29.60;34.80
46720;DHT22;32452;51.382;-0.002;2023-06-14T14:13:52;29.50;34.90
46720;DHT22;32452;51.382;-0.002;2023-06-14T14:16:38;29.50;35.10
46720;DHT22;32452;51.382;-0.002;2023-06-14T14:19:24;29.50;35.40
46720;DHT22;32452;51.382;-0.002;2023-06-14T14:22:10;29.60;35.60
46720;DHT22;32452;51.382;-0.002;2023-06-14T14:24:55;29.60;35.30
46720;DHT22;32452;51.382;-0.002;2023-06-14T14:27:41;29.50;34.90
46720;DHT22;32452;51.382;-0.002;2023-06-14T14:30:27;29.40;34.70
46720;DHT22;32452;51.382;-0.002;2023-06-14T14:33:14;29.30;34.80
46720;DHT22;32452;51.382;-0.002;2023-06-14T14:36:01;29.20;35.00
46720;DHT22;32452;51.382;-0.002;2023-06-14T14:38:49;29.00;35.30
46720;DHT22;32452;51.382;-0.002;2023-06-14T14:41:37;28.90;35.60
46720;DHT22;32452;51.382;-0.002;2023-06-14T14:44:27;28.70;35.50
46720;DHT22;32452;51.382;-0.002;2023-06-14T14:47:12;28.60;35.50
46720;DHT22;32452;51.382;-0.002;2023-06-14T14:49:58;28.40;35.90
46720;DHT22;32452;51.382;-0.002;2023-06-14T14:52:44;28.30;36.00
46720;DHT22;32452;51.382;-0.002;2023-06-14T14:55:30;28.30;35.90
46720;DHT22;32452;51.382;-0.002;2023-06-14T14:58:16;28.30;35.70
46720;DHT22;32452;51.382;-0.002;2023-06-14T15:01:03;28.10;35.60
46720;DHT22;32452;51.382;-0.002;2023-06-14T15:03:51;28.10;35.30
46720;DHT22;32452;51.382;-0.002;2023-06-14T15:06:44;28.00;35.00
46720;DHT22;32452;51.382;-0.002;2023-06-14T15:09:29;27.80;34.50
46720;DHT22;32452;51.382;-0.002;2023-06-14T15:12:15;27.80;34.30
46720;DHT22;32452;51.382;-0.002;2023-06-14T15:15:01;27.70;34.20
46720;DHT22;32452;51.382;-0.002;2023-06-14T15:17:48;27.60;34.00
46720;DHT22;32452;51.382;-0.002;2023-06-14T15:20:34;27.60;34.20
46720;DHT22;32452;51.382;-0.002;2023-06-14T15:23:19;27.50;34.10
46720;DHT22;32452;51.382;-0.002;2023-06-14T15:26:05;27.50;34.20
46720;DHT22;32452;51.382;-0.002;2023-06-14T15:28:50;27.50;34.20
46720;DHT22;32452;51.382;-0.002;2023-06-14T15:31:36;27.50;34.20
46720;DHT22;32452;51.382;-0.002;2023-06-14T15:34:22;27.40;34.10
46720;DHT22;32452;51.382;-0.002;2023-06-14T15:37:07;27.40;34.10
46720;DHT22;32452;51.382;-0.002;2023-06-14T15:39:53;27.30;34.60
46720;DHT22;32452;51.382;-0.002;2023-06-14T15:42:39;27.40;34.90
46720;DHT22;32452;51.382;-0.002;2023-06-14T15:45:24;27.40;35.00
46720;DHT22;32452;51.382;-0.002;2023-06-14T15:48:09;27.40;35.20
46720;DHT22;32452;51.382;-0.002;2023-06-14T15:50:55;27.30;35.40
46720;DHT22;32452;51.382;-0.002;2023-06-14T15:53:41;27.30;35.60
46720;DHT22;32452;51.382;-0.002;2023-06-14T15:56:26;27.30;35.90
46720;DHT22;32452;51.382;-0.002;2023-06-14T15:59:12;27.30;36.00
46720;DHT22;32452;51.382;-0.002;2023-06-14T16:01:58;27.20;36.10
46720;DHT22;32452;51.382;-0.002;2023-06-14T16:04:43;27.10;36.60
46720;DHT22;32452;51.382;-0.002;2023-06-14T16:07:29;27.10;37.00
46720;DHT22;32452;51.382;-0.002;2023-06-14T16:10:15;27.00;37.50
46720;DHT22;32452;51.382;-0.002;2023-06-14T16:13:01;27.00;37.60
46720;DHT22;32452;51.382;-0.002;2023-06-14T16:15:47;26.90;37.70
46720;DHT22;32452;51.382;-0.002;2023-06-14T16:18:32;26.90;37.70
46720;DHT22;32452;51.382;-0.002;2023-06-14T16:21:18;26.80;37.30
46720;DHT22;32452;51.382;-0.002;2023-06-14T16:24:04;26.70;37.00
46720;DHT22;32452;51.382;-0.002;2023-06-14T16:26:50;26.70;36.50
46720;DHT22;32452;51.382;-0.002;2023-06-14T16:29:39;26.60;36.70
46720;DHT22;32452;51.382;-0.002;2023-06-14T16:32:25;26.60;36.90
46720;DHT22;32452;51.382;-0.002;2023-06-14T16:35:10;26.60;37.20
46720;DHT22;32452;51.382;-0.002;2023-06-14T16:37:56;26.50;37.50
46720;DHT22;32452;51.382;-0.002;2023-06-14T16:40:42;26.50;37.40
46720;DHT22;32452;51.382;-0.002;2023-06-14T16:43:27;26.40;37.20
46720;DHT22;32452;51.382;-0.002;2023-06-14T16:46:14;26.40;37.50
46720;DHT22;32452;51.382;-0.002;2023-06-14T16:49:00;26.30;37.50
46720;DHT22;32452;51.382;-0.002;2023-06-14T16:51:46;26.30;37.60
46720;DHT22;32452;51.382;-0.002;2023-06-14T16:54:32;26.20;37.70
46720;DHT22;32452;51.382;-0.002;2023-06-14T16:57:17;26.20;37.90
46720;DHT22;32452;51.382;-0.002;2023-06-14T17:00:03;26.10;37.90
46720;DHT22;32452;51.382;-0.002;2023-06-14T17:02:49;26.10;37.90
46720;DHT22;32452;51.382;-0.002;2023-06-14T17:05:58;26.10;37.90
46720;DHT22;32452;51.382;-0.002;2023-06-14T17:08:44;26.00;38.60
46720;DHT22;32452;51.382;-0.002;2023-06-14T17:11:30;25.90;37.90
46720;DHT22;32452;51.382;-0.002;2023-06-14T17:14:16;25.90;37.70
46720;DHT22;32452;51.382;-0.002;2023-06-14T17:17:01;25.80;37.80
46720;DHT22;32452;51.382;-0.002;2023-06-14T17:19:47;25.70;37.80
46720;DHT22;32452;51.382;-0.002;2023-06-14T17:22:32;25.70;38.00
46720;DHT22;32452;51.382;-0.002;2023-06-14T17:25:18;25.70;38.00
46720;DHT22;32452;51.382;-0.002;2023-06-14T17:28:04;25.70;38.10
46720;DHT22;32452;51.382;-0.002;2023-06-14T17:30:50;25.70;38.20
46720;DHT22;32452;51.382;-0.002;2023-06-14T17:33:36;25.70;38.30